createdAt,value
2019-02-21T00:00:11.737Z,37.83
2019-02-21T00:02:41.718Z,32.58
2019-02-21T00:05:10.119Z,35.50
2019-02-21T00:07:38.526Z,32.83
2019-02-21T00:10:07.649Z,31.33
2019-02-21T00:12:37.797Z,35.00
2019-02-21T00:15:07.438Z,42.55
2019-02-21T00:17:37.465Z,38.83
2019-02-21T00:20:06.087Z,40.52
2019-02-21T00:22:37.602Z,31.17
2019-02-21T00:25:07.609Z,34.70
2019-02-21T00:27:35.993Z,29.57
2019-02-21T00:30:05.141Z,30.48
2019-02-21T00:32:33.563Z,28.90
2019-02-21T00:35:03.640Z,25.95
2019-02-21T00:37:32.029Z,26.90
2019-02-21T00:40:00.498Z,28.15
2019-02-21T00:42:28.875Z,33.33
2019-02-21T00:44:57.257Z,26.40
2019-02-21T00:47:25.635Z,27.02
2019-02-21T00:49:54.011Z,27.25
2019-02-21T00:52:22.438Z,28.50
2019-02-21T00:54:50.827Z,28.27
2019-02-21T00:57:19.191Z,27.40
2019-02-21T00:59:47.604Z,34.18
2019-02-21T01:02:15.985Z,28.60
2019-02-21T01:04:44.446Z,29.63
2019-02-21T01:07:12.807Z,25.25
2019-02-21T01:09:41.198Z,33.30
2019-02-21T01:12:09.597Z,26.15
2019-02-21T01:14:38.001Z,29.40
2019-02-21T01:17:06.431Z,30.17
2019-02-21T01:19:34.784Z,28.20
2019-02-21T01:22:03.986Z,32.30
2019-02-21T01:24:32.380Z,30.60
2019-02-21T01:27:00.743Z,29.55
2019-02-21T01:29:29.182Z,30.60
2019-02-21T01:31:57.579Z,23.45
2019-02-21T01:34:26.001Z,23.38
2019-02-21T01:36:54.350Z,25.65
2019-02-21T01:39:22.843Z,25.72
2019-02-21T01:41:51.227Z,26.27
2019-02-21T01:44:19.607Z,29.07
2019-02-21T01:46:48.018Z,26.55
2019-02-21T01:49:16.450Z,30.77
2019-02-21T01:51:44.914Z,25.82
2019-02-21T01:54:13.247Z,26.73
2019-02-21T01:56:41.724Z,28.32
2019-02-21T01:59:10.017Z,27.62
2019-02-21T02:01:38.418Z,30.35
2019-02-21T02:04:06.807Z,28.02
2019-02-21T02:06:35.226Z,24.82
2019-02-21T02:09:05.266Z,26.37
2019-02-21T02:11:33.707Z,26.40
2019-02-21T02:14:04.917Z,23.02
2019-02-21T02:16:33.417Z,30.90
2019-02-21T02:19:03.556Z,25.27
2019-02-21T02:21:31.927Z,28.00
2019-02-21T02:24:00.339Z,31.30
2019-02-21T02:26:28.718Z,26.00
2019-02-21T02:28:57.124Z,25.82
2019-02-21T02:31:25.512Z,25.45
2019-02-21T02:33:53.918Z,26.52
2019-02-21T02:36:22.307Z,23.50
2019-02-21T02:38:50.710Z,31.93
2019-02-21T02:41:19.129Z,27.00
2019-02-21T02:43:47.504Z,29.85
2019-02-21T02:46:15.916Z,31.37
2019-02-21T02:48:44.308Z,22.75
2019-02-21T02:51:12.672Z,25.35
2019-02-21T02:53:41.125Z,23.92
2019-02-21T02:56:09.463Z,25.62
2019-02-21T02:58:37.871Z,29.20
2019-02-21T03:01:09.125Z,26.17
2019-02-21T03:03:37.531Z,26.07
2019-02-21T03:06:05.945Z,30.12
2019-02-21T03:08:34.328Z,24.60
2019-02-21T03:11:02.734Z,31.75
2019-02-21T03:13:31.152Z,27.32
2019-02-21T03:16:01.151Z,27.90
2019-02-21T03:18:29.548Z,23.47
2019-02-21T03:20:57.959Z,25.68
2019-02-21T03:23:26.331Z,25.32
2019-02-21T03:25:54.739Z,27.80
2019-02-21T03:28:23.134Z,30.02
2019-02-21T03:30:51.621Z,34.60
2019-02-21T03:33:20.017Z,31.68
2019-02-21T03:35:48.392Z,27.48
2019-02-21T03:38:16.804Z,24.80
2019-02-21T03:40:45.205Z,30.77
2019-02-21T03:43:13.619Z,34.85
2019-02-21T03:45:42.008Z,28.75
2019-02-21T03:48:10.389Z,32.70
2019-02-21T03:50:38.764Z,27.17
2019-02-21T03:53:07.159Z,30.12
2019-02-21T03:55:35.557Z,22.30
2019-02-21T03:58:03.937Z,29.67
2019-02-21T04:00:32.332Z,33.55
2019-02-21T04:03:00.718Z,31.87
2019-02-21T04:05:29.115Z,25.40
2019-02-21T04:07:57.497Z,26.95
2019-02-21T04:10:25.893Z,32.63
2019-02-21T04:12:54.326Z,33.95
2019-02-21T04:15:22.681Z,37.23
2019-02-21T04:17:51.063Z,29.90
2019-02-21T04:20:19.443Z,28.20
2019-02-21T04:22:47.892Z,27.67
2019-02-21T04:25:16.263Z,29.27
2019-02-21T04:27:44.639Z,27.70
2019-02-21T04:30:13.057Z,29.82
2019-02-21T04:32:41.433Z,29.23
2019-02-21T04:35:09.835Z,26.17
2019-02-21T04:37:38.216Z,29.20
2019-02-21T04:40:07.108Z,26.25
2019-02-21T04:42:35.537Z,30.43
2019-02-21T04:45:04.314Z,32.05
2019-02-21T04:47:32.689Z,31.02
2019-02-21T04:50:01.103Z,27.27
2019-02-21T04:52:29.478Z,32.13
2019-02-21T04:54:57.878Z,25.97
2019-02-21T04:57:26.357Z,33.53
2019-02-21T04:59:54.735Z,29.98
2019-02-21T05:02:29.337Z,30.20
2019-02-21T05:04:53.289Z,30.00
2019-02-21T05:07:21.706Z,30.12
2019-02-21T05:09:57.869Z,31.45
2019-02-21T05:12:20.187Z,34.45
2019-02-21T05:14:48.641Z,36.00
2019-02-21T05:17:17.019Z,39.63
2019-02-21T05:19:45.427Z,39.58
2019-02-21T05:22:13.813Z,33.98
2019-02-21T05:24:42.318Z,35.83
2019-02-21T05:27:12.339Z,39.03
2019-02-21T05:29:40.740Z,43.50
2019-02-21T05:32:10.783Z,34.43
2019-02-21T05:34:59.218Z,34.95
2019-02-21T05:37:32.003Z,37.35
2019-02-21T05:40:18.298Z,35.85
2019-02-21T05:43:00.043Z,38.38
2019-02-21T05:45:39.023Z,37.65
2019-02-21T05:48:15.036Z,43.90
2019-02-21T05:50:45.056Z,46.20
2019-02-21T05:53:27.039Z,42.45
2019-02-21T05:55:57.233Z,33.73
2019-02-21T05:58:42.281Z,41.05
2019-02-21T06:01:27.348Z,39.53
2019-02-21T06:04:00.335Z,38.90
2019-02-21T06:06:30.385Z,41.10
2019-02-21T06:09:00.427Z,40.95
2019-02-21T06:11:45.468Z,41.00
2019-02-21T06:14:32.038Z,39.88
2019-02-21T06:17:10.642Z,46.20
2019-02-21T06:19:48.145Z,43.20
2019-02-21T06:22:33.492Z,45.12
2019-02-21T06:25:09.342Z,41.23
2019-02-21T06:27:42.340Z,32.80
2019-02-21T06:30:18.228Z,34.67
2019-02-21T06:32:46.609Z,48.17
2019-02-21T06:35:15.034Z,35.83
2019-02-21T06:37:43.412Z,45.52
2019-02-21T06:40:11.839Z,39.58
2019-02-21T06:42:40.220Z,39.65
2019-02-21T06:45:08.587Z,46.05
2019-02-21T06:47:37.003Z,41.28
2019-02-21T06:50:06.023Z,39.78
2019-02-21T06:52:34.472Z,45.17
2019-02-21T06:55:02.829Z,37.55
2019-02-21T06:57:31.214Z,35.73
2019-02-21T06:59:59.594Z,44.18
2019-02-21T07:02:28.292Z,43.60
2019-02-21T07:04:56.922Z,39.98
2019-02-21T07:07:25.428Z,37.35
2019-02-21T07:09:53.802Z,44.42
2019-02-21T07:12:22.242Z,43.90
2019-02-21T07:14:50.623Z,40.95
2019-02-21T07:17:19.000Z,37.48
2019-02-21T07:19:47.385Z,43.98
2019-02-21T07:22:18.070Z,41.30
2019-02-21T07:24:47.772Z,53.68
2019-02-21T07:27:16.126Z,41.18
2019-02-21T07:29:44.529Z,39.50
2019-02-21T07:32:12.949Z,45.38
2019-02-21T07:34:41.341Z,39.00
2019-02-21T07:37:18.045Z,40.23
2019-02-21T07:39:39.831Z,37.50
2019-02-21T07:42:08.243Z,44.40
2019-02-21T07:44:36.670Z,58.92
2019-02-21T07:47:05.047Z,43.95
2019-02-21T07:49:33.472Z,45.63
2019-02-21T07:52:01.839Z,42.40
2019-02-21T07:54:30.256Z,46.37
2019-02-21T07:56:58.635Z,45.40
2019-02-21T07:59:27.030Z,35.10
2019-02-21T08:01:55.429Z,35.95
2019-02-21T08:04:23.813Z,49.40
2019-02-21T08:06:55.291Z,42.00
2019-02-21T08:09:22.286Z,42.23
2019-02-21T08:11:50.680Z,48.55
2019-02-21T08:14:19.080Z,39.15
2019-02-21T08:16:47.485Z,47.23
2019-02-21T08:19:15.871Z,52.00
2019-02-21T08:21:44.316Z,38.53
2019-02-21T08:24:12.855Z,41.48
2019-02-21T08:26:41.259Z,36.17
2019-02-21T08:29:09.656Z,48.20
2019-02-21T08:31:38.067Z,36.95
2019-02-21T08:34:08.088Z,48.35
2019-02-21T08:36:36.519Z,43.80
2019-02-21T08:39:06.951Z,40.08
2019-02-21T08:41:35.337Z,37.58
2019-02-21T08:44:03.741Z,36.65
2019-02-21T08:46:32.123Z,40.55
2019-02-21T08:49:00.519Z,38.02
2019-02-21T08:51:29.018Z,47.50
2019-02-21T08:53:57.429Z,36.90
2019-02-21T08:56:25.808Z,38.58
2019-02-21T08:58:54.246Z,38.60
2019-02-21T09:01:22.595Z,34.45
2019-02-21T09:03:50.968Z,39.25
2019-02-21T09:06:19.380Z,36.77
2019-02-21T09:08:47.784Z,37.83
2019-02-21T09:11:16.184Z,39.50
2019-02-21T09:13:44.627Z,42.10
2019-02-21T09:16:13.079Z,37.42
2019-02-21T09:18:41.436Z,40.60
2019-02-21T09:21:09.853Z,42.53
2019-02-21T09:23:38.233Z,41.48
2019-02-21T09:26:06.640Z,41.90
2019-02-21T09:28:35.022Z,37.60
2019-02-21T09:31:03.438Z,36.58
2019-02-21T09:33:31.854Z,45.08
2019-02-21T09:36:00.231Z,52.10
2019-02-21T09:38:28.625Z,87.35
2019-02-21T09:40:57.017Z,63.25
2019-02-21T09:43:25.395Z,44.83
2019-02-21T09:45:54.094Z,49.77
2019-02-21T09:48:22.604Z,46.88
2019-02-21T09:50:50.980Z,46.00
2019-02-21T09:53:19.357Z,43.23
2019-02-21T09:55:50.199Z,41.28
2019-02-21T09:58:17.802Z,45.12
2019-02-21T10:00:46.209Z,51.85
2019-02-21T10:03:14.592Z,47.25
2019-02-21T10:05:43.019Z,42.60
2019-02-21T10:08:11.398Z,44.33
2019-02-21T10:10:39.771Z,39.83
2019-02-21T10:13:08.186Z,48.83
2019-02-21T10:15:37.476Z,46.30
2019-02-21T10:18:05.863Z,42.50
2019-02-21T10:20:34.257Z,51.90
2019-02-21T10:23:02.658Z,48.45
2019-02-21T10:25:31.888Z,52.27
2019-02-21T10:28:00.297Z,52.43
2019-02-21T10:30:28.713Z,49.55
2019-02-21T10:32:57.095Z,54.77
2019-02-21T10:35:25.506Z,54.73
2019-02-21T10:37:53.946Z,52.15
2019-02-21T10:40:22.323Z,48.45
2019-02-21T10:42:50.716Z,46.85
2019-02-21T10:45:20.675Z,50.98
2019-02-21T10:47:49.084Z,46.95
2019-02-21T10:50:20.602Z,40.20
2019-02-21T10:52:48.988Z,51.02
2019-02-21T10:55:17.922Z,47.25
2019-02-21T10:57:46.340Z,50.95
2019-02-21T11:00:23.619Z,49.85
2019-02-21T11:02:51.993Z,53.90
2019-02-21T11:05:20.460Z,46.20
2019-02-21T11:07:48.820Z,58.90
2019-02-21T11:10:25.424Z,54.30
2019-02-21T11:12:53.805Z,53.45
2019-02-21T11:15:24.051Z,55.33
2019-02-21T11:17:52.435Z,54.13
2019-02-21T11:20:21.679Z,48.40
2019-02-21T11:22:50.079Z,48.55
2019-02-21T11:25:18.464Z,46.18
2019-02-21T11:27:46.843Z,50.95
2019-02-21T11:30:19.651Z,49.15
2019-02-21T11:32:48.031Z,49.53
2019-02-21T11:35:16.476Z,45.92
2019-02-21T11:37:47.179Z,51.23
2019-02-21T11:40:16.306Z,51.45
2019-02-21T11:42:45.068Z,57.40
2019-02-21T11:45:17.784Z,54.38
2019-02-21T11:47:46.149Z,49.80
2019-02-21T11:50:18.419Z,49.93
2019-02-21T11:52:46.902Z,48.65
2019-02-21T11:55:23.675Z,50.00
2019-02-21T11:57:52.082Z,51.63
2019-02-21T12:00:23.893Z,47.43
2019-02-21T12:02:52.324Z,48.02
2019-02-21T12:05:30.545Z,45.80
2019-02-21T12:07:50.784Z,48.92
2019-02-21T12:10:19.173Z,51.85
2019-02-21T12:12:47.564Z,50.43
2019-02-21T12:15:16.693Z,46.70
2019-02-21T12:17:45.152Z,50.88
2019-02-21T12:20:15.250Z,52.62
2019-02-21T12:22:43.651Z,48.80
2019-02-21T12:25:14.326Z,51.30
2019-02-21T12:27:42.691Z,49.70
2019-02-21T12:30:16.144Z,50.08
2019-02-21T12:32:44.568Z,50.98
2019-02-21T12:35:13.053Z,51.50
2019-02-21T12:37:41.428Z,48.15
2019-02-21T12:40:12.949Z,59.13
2019-02-21T12:42:41.323Z,49.70
2019-02-21T12:45:12.347Z,49.15
2019-02-21T12:47:49.367Z,54.20
2019-02-21T12:50:13.487Z,49.77
2019-02-21T12:52:41.865Z,56.15
2019-02-21T12:55:11.322Z,55.63
2019-02-21T12:57:39.724Z,49.98
2019-02-21T13:00:16.864Z,50.28
2019-02-21T13:02:45.263Z,50.70
2019-02-21T13:05:13.662Z,53.70
2019-02-21T13:07:42.056Z,53.60
2019-02-21T13:10:13.313Z,51.23
2019-02-21T13:12:43.416Z,47.48
2019-02-21T13:15:13.491Z,49.65
2019-02-21T13:17:41.864Z,46.98
2019-02-21T13:20:11.673Z,46.75
2019-02-21T13:22:40.089Z,45.90
2019-02-21T13:25:11.060Z,45.80
2019-02-21T13:27:39.454Z,43.35
2019-02-21T13:30:12.880Z,48.23
2019-02-21T13:32:41.255Z,45.95
2019-02-21T13:35:10.600Z,49.30
2019-02-21T13:37:38.989Z,58.83
2019-02-21T13:40:12.896Z,59.55
2019-02-21T13:42:41.275Z,58.28
2019-02-21T13:45:11.759Z,63.83
2019-02-21T13:47:41.529Z,70.20
2019-02-21T13:50:12.351Z,57.20
2019-02-21T13:52:40.795Z,54.03
2019-02-21T13:55:09.209Z,70.32
2019-02-21T13:57:37.587Z,64.53
2019-02-21T14:00:11.777Z,63.68
2019-02-21T14:02:40.149Z,75.62
2019-02-21T14:05:08.583Z,71.17
2019-02-21T14:07:37.441Z,67.72
2019-02-21T14:10:08.762Z,72.78
2019-02-21T14:12:37.207Z,68.62
2019-02-21T14:15:08.932Z,65.05
2019-02-21T14:17:37.307Z,68.17
2019-02-21T14:20:07.699Z,74.67
2019-02-21T14:22:44.280Z,72.47
2019-02-21T14:25:12.755Z,79.65
2019-02-21T14:27:41.135Z,76.02
2019-02-21T14:30:14.944Z,83.17
2019-02-21T14:32:43.316Z,57.65
2019-02-21T14:35:14.462Z,53.80
2019-02-21T14:37:42.869Z,46.45
2019-02-21T14:40:12.623Z,43.33
2019-02-21T14:42:41.011Z,53.13
2019-02-21T14:45:20.243Z,53.98
2019-02-21T14:47:48.638Z,44.98
2019-02-21T14:50:17.068Z,50.40
2019-02-21T14:52:45.500Z,51.73
2019-02-21T14:55:16.386Z,51.45
2019-02-21T14:57:44.779Z,48.63
2019-02-21T15:00:22.479Z,45.17
2019-02-21T15:02:50.947Z,45.25
2019-02-21T15:05:19.940Z,42.95
2019-02-21T15:07:48.417Z,47.43
2019-02-21T15:10:35.384Z,50.73
2019-02-21T15:13:03.819Z,48.48
2019-02-21T15:15:32.206Z,47.62
2019-02-21T15:18:07.530Z,44.23
2019-02-21T15:20:36.952Z,49.50
2019-02-21T15:23:00.700Z,53.00
2019-02-21T15:25:29.093Z,56.40
2019-02-21T15:27:57.507Z,53.30
2019-02-21T15:30:26.270Z,56.13
2019-02-21T15:32:54.650Z,59.88
2019-02-21T15:35:23.106Z,61.18
2019-02-21T15:37:51.482Z,60.55
2019-02-21T15:40:21.316Z,60.03
2019-02-21T15:42:52.746Z,68.47
2019-02-21T15:45:24.198Z,60.33
2019-02-21T15:47:52.941Z,61.90
2019-02-21T15:50:21.359Z,68.15
2019-02-21T15:52:52.578Z,69.92
2019-02-21T15:55:21.867Z,75.05
2019-02-21T15:57:50.343Z,76.60
2019-02-21T16:00:20.215Z,72.10
2019-02-21T16:02:48.624Z,67.17
2019-02-21T16:05:18.675Z,66.22
2019-02-21T16:07:47.049Z,64.85
2019-02-21T16:10:21.203Z,62.60
2019-02-21T16:12:50.158Z,62.50
2019-02-21T16:15:19.348Z,56.90
2019-02-21T16:17:47.706Z,49.45
2019-02-21T16:20:17.447Z,48.80
2019-02-21T16:22:45.860Z,44.73
2019-02-21T16:25:22.467Z,41.88
2019-02-21T16:27:50.835Z,43.28
2019-02-21T16:30:21.909Z,32.55
2019-02-21T16:32:49.316Z,34.48
2019-02-21T16:35:17.711Z,31.82
2019-02-21T16:37:46.122Z,31.37
2019-02-21T16:40:16.907Z,31.37
2019-02-21T16:42:45.336Z,30.00
2019-02-21T16:45:22.224Z,22.55
2019-02-21T16:47:50.910Z,25.97
2019-02-21T16:50:29.449Z,75.87
2019-02-21T16:52:49.397Z,21.80
2019-02-21T16:55:20.106Z,21.07
2019-02-21T16:57:48.563Z,25.02
2019-02-21T17:00:19.164Z,31.02
2019-02-21T17:02:47.549Z,22.32
2019-02-21T17:05:16.280Z,23.92
2019-02-21T17:07:44.651Z,23.27
2019-02-21T17:10:16.476Z,22.22
2019-02-21T17:12:44.965Z,23.55
2019-02-21T17:15:14.555Z,21.65
2019-02-21T17:17:42.933Z,23.65
2019-02-21T17:20:13.957Z,21.12
2019-02-21T17:22:42.472Z,24.80
2019-02-21T17:25:13.249Z,24.77
2019-02-21T17:27:41.596Z,27.00
2019-02-21T17:30:12.914Z,30.30
2019-02-21T17:32:42.974Z,24.63
2019-02-21T17:35:11.362Z,29.50
2019-02-21T17:37:39.817Z,32.75
2019-02-21T17:40:21.725Z,27.60
2019-02-21T17:42:50.816Z,29.25
2019-02-21T17:45:19.479Z,29.90
2019-02-21T17:47:47.838Z,30.52
2019-02-21T17:50:19.964Z,29.55
2019-02-21T17:52:48.356Z,29.52
2019-02-21T17:55:17.317Z,36.42
2019-02-21T17:57:45.753Z,26.27
2019-02-21T18:00:20.980Z,29.48
2019-02-21T18:02:50.708Z,27.77
2019-02-21T18:05:19.071Z,29.55
2019-02-21T18:07:47.429Z,29.32
2019-02-21T18:10:16.890Z,31.62
2019-02-21T18:12:45.273Z,29.42
2019-02-21T18:15:14.992Z,37.38
2019-02-21T18:17:43.481Z,33.05
2019-02-21T18:20:13.322Z,34.38
2019-02-21T18:22:41.751Z,36.65
2019-02-21T18:25:22.540Z,35.70
2019-02-21T18:27:52.170Z,39.23
2019-02-21T18:30:20.507Z,62.62
2019-02-21T18:32:48.896Z,40.85
2019-02-21T18:35:17.310Z,39.83
2019-02-21T18:37:47.732Z,39.67
2019-02-21T18:40:21.158Z,48.30
2019-02-21T18:42:49.683Z,39.55
2019-02-21T18:45:18.207Z,38.80
2019-02-21T18:47:46.571Z,41.02
2019-02-21T18:50:15.050Z,45.20
2019-02-21T18:52:43.447Z,38.48
2019-02-21T18:55:11.852Z,40.33
2019-02-21T18:57:40.361Z,50.23
2019-02-21T19:00:26.015Z,39.83
2019-02-21T19:02:54.440Z,49.83
2019-02-21T19:05:22.804Z,39.20
2019-02-21T19:08:00.441Z,35.98
2019-02-21T19:10:22.360Z,43.20
2019-02-21T19:12:51.077Z,38.45
2019-02-21T19:15:20.407Z,43.08
2019-02-21T19:17:48.830Z,43.52
2019-02-21T19:20:18.839Z,40.03
2019-02-21T19:22:47.214Z,36.93
2019-02-21T19:25:15.607Z,41.00
2019-02-21T19:27:44.039Z,38.45
2019-02-21T19:30:15.825Z,40.73
2019-02-21T19:32:44.257Z,42.40
2019-02-21T19:35:12.622Z,40.33
2019-02-21T19:37:42.682Z,40.63
2019-02-21T19:40:11.217Z,39.03
2019-02-21T19:42:39.646Z,67.58
2019-02-21T19:45:08.989Z,55.03
2019-02-21T19:47:37.375Z,50.95
2019-02-21T19:50:08.145Z,45.00
2019-02-21T19:52:37.130Z,46.18
2019-02-21T19:55:10.013Z,47.60
2019-02-21T19:57:39.500Z,51.18
2019-02-21T20:00:22.708Z,47.35
2019-02-21T20:02:50.753Z,45.23
2019-02-21T20:05:19.370Z,44.95
2019-02-21T20:07:47.784Z,47.23
2019-02-21T20:10:16.252Z,55.83
2019-02-21T20:12:44.646Z,51.00
2019-02-21T20:15:13.128Z,47.78
2019-02-21T20:17:41.656Z,48.90
2019-02-21T20:20:16.080Z,50.00
2019-02-21T20:22:44.507Z,47.98
2019-02-21T20:25:12.916Z,47.98
2019-02-21T20:27:41.299Z,48.87
2019-02-21T20:30:12.848Z,54.95
2019-02-21T20:32:41.255Z,54.88
2019-02-21T20:35:09.674Z,52.80
2019-02-21T20:37:38.051Z,54.10
2019-02-21T20:40:08.684Z,51.40
2019-02-21T20:42:37.074Z,52.62
2019-02-21T20:45:15.358Z,56.73
2019-02-21T20:47:43.760Z,54.25
2019-02-21T20:50:12.594Z,53.58
2019-02-21T20:52:41.253Z,59.70
2019-02-21T20:55:10.995Z,57.95
2019-02-21T20:57:39.525Z,61.80
2019-02-21T21:00:11.074Z,72.62
2019-02-21T21:02:39.450Z,73.15
2019-02-21T21:05:07.858Z,83.45
2019-02-21T21:07:36.232Z,84.10
2019-02-21T21:10:11.353Z,84.60
2019-02-21T21:12:39.369Z,77.45
2019-02-21T21:15:10.319Z,84.22
2019-02-21T21:17:38.659Z,91.95
2019-02-21T21:20:16.353Z,86.87
2019-02-21T21:22:39.451Z,87.88
2019-02-21T21:25:13.266Z,91.85
2019-02-21T21:27:41.691Z,157.35
2019-02-21T21:30:15.660Z,90.95
2019-02-21T21:32:44.082Z,90.85
2019-02-21T21:35:12.458Z,87.75
2019-02-21T21:37:40.869Z,93.90
2019-02-21T21:40:16.852Z,97.00
2019-02-21T21:42:45.270Z,89.62
2019-02-21T21:45:15.618Z,92.60
2019-02-21T21:47:44.050Z,91.67
2019-02-21T21:50:16.906Z,101.25
2019-02-21T21:52:45.316Z,103.78
2019-02-21T21:55:13.799Z,100.42
2019-02-21T21:57:42.124Z,106.00
2019-02-21T22:00:24.058Z,98.25
2019-02-21T22:02:52.445Z,103.80
2019-02-21T22:05:20.850Z,99.90
2019-02-21T22:07:49.650Z,110.32
2019-02-21T22:10:18.418Z,102.85
2019-02-21T22:12:47.268Z,96.28
2019-02-21T22:15:23.658Z,104.38
2019-02-21T22:17:52.108Z,112.68
2019-02-21T22:20:20.551Z,114.97
2019-02-21T22:22:48.899Z,96.15
2019-02-21T22:25:17.297Z,98.33
2019-02-21T22:27:45.729Z,99.07
2019-02-21T22:30:18.607Z,105.10
2019-02-21T22:32:47.111Z,112.20
2019-02-21T22:35:17.475Z,109.78
2019-02-21T22:37:45.874Z,109.25
2019-02-21T22:40:18.162Z,96.08
2019-02-21T22:42:46.573Z,107.20
2019-02-21T22:45:15.000Z,100.30
2019-02-21T22:47:48.833Z,104.35
2019-02-21T22:50:18.820Z,104.75
2019-02-21T22:52:47.238Z,91.30
2019-02-21T22:55:15.605Z,100.25
2019-02-21T22:57:44.022Z,93.22
2019-02-21T23:00:31.996Z,95.92
2019-02-21T23:03:01.189Z,96.78
2019-02-21T23:05:58.934Z,95.75
2019-02-21T23:08:42.570Z,99.25
2019-02-21T23:11:11.145Z,101.38
2019-02-21T23:13:39.520Z,83.50
2019-02-21T23:16:07.905Z,99.25
2019-02-21T23:18:36.306Z,104.23
2019-02-21T23:21:04.781Z,95.53
2019-02-21T23:23:33.177Z,104.35
2019-02-21T23:26:01.573Z,96.10
2019-02-21T23:28:30.021Z,107.15
2019-02-21T23:30:58.452Z,98.33
2019-02-21T23:33:27.706Z,93.87
2019-02-21T23:35:56.087Z,93.42
2019-02-21T23:38:24.499Z,101.33
2019-02-21T23:40:52.919Z,110.32
2019-02-21T23:43:21.302Z,98.67
2019-02-21T23:45:49.688Z,98.35
2019-02-21T23:48:18.112Z,94.42
2019-02-21T23:50:46.495Z,90.42
2019-02-21T23:53:14.971Z,83.65
2019-02-21T23:55:43.351Z,93.07
2019-02-21T23:58:11.740Z,90.15
